sensor_id;sensor_type;location;lat;lon;timestamp;P1;durP1;ratioP1;P2;durP2;ratioP2
85820;SDS011;76265;50.102;8.854;2024-03-23T00:53:43;18.33;;;7.90;;
85820;SDS011;76265;50.102;8.854;2024-03-23T00:56:09;13.65;;;7.38;;
85820;SDS011;76265;50.102;8.854;2024-03-23T00:58:36;13.00;;;7.68;;
85820;SDS011;76265;50.102;8.854;2024-03-23T01:01:02;16.88;;;8.20;;
85820;SDS011;76265;50.102;8.854;2024-03-23T01:03:30;19.08;;;8.48;;
85820;SDS011;76265;50.102;8.854;2024-03-23T01:05:58;22.75;;;8.43;;
85820;SDS011;76265;50.102;8.854;2024-03-23T01:08:25;15.02;;;8.30;;
85820;SDS011;76265;50.102;8.854;2024-03-23T01:10:56;11.93;;;8.02;;
85820;SDS011;76265;50.102;8.854;2024-03-23T01:13:24;12.52;;;7.22;;
85820;SDS011;76265;50.102;8.854;2024-03-23T01:15:50;13.02;;;7.22;;
85820;SDS011;76265;50.102;8.854;2024-03-23T01:18:17;14.45;;;7.38;;
85820;SDS011;76265;50.102;8.854;2024-03-23T01:20:43;17.23;;;8.00;;
85820;SDS011;76265;50.102;8.854;2024-03-23T01:23:10;12.10;;;7.18;;
85820;SDS011;76265;50.102;8.854;2024-03-23T01:25:36;14.45;;;8.13;;
85820;SDS011;76265;50.102;8.854;2024-03-23T01:28:05;11.55;;;7.32;;
85820;SDS011;76265;50.102;8.854;2024-03-23T01:30:32;17.40;;;7.25;;
85820;SDS011;76265;50.102;8.854;2024-03-23T01:32:59;11.55;;;6.25;;
85820;SDS011;76265;50.102;8.854;2024-03-23T01:35:25;12.30;;;6.72;;
85820;SDS011;76265;50.102;8.854;2024-03-23T01:37:52;10.95;;;6.68;;
85820;SDS011;76265;50.102;8.854;2024-03-23T01:40:18;11.27;;;6.88;;
85820;SDS011;76265;50.102;8.854;2024-03-23T01:42:54;9.57;;;5.68;;
85820;SDS011;76265;50.102;8.854;2024-03-23T01:45:22;12.30;;;6.15;;
85820;SDS011;76265;50.102;8.854;2024-03-23T01:47:49;14.85;;;7.60;;
85820;SDS011;76265;50.102;8.854;2024-03-23T01:50:16;13.70;;;6.85;;
85820;SDS011;76265;50.102;8.854;2024-03-23T01:52:43;10.45;;;6.18;;
85820;SDS011;76265;50.102;8.854;2024-03-23T01:55:10;16.27;;;7.28;;
85820;SDS011;76265;50.102;8.854;2024-03-23T01:57:37;11.65;;;6.82;;
85820;SDS011;76265;50.102;8.854;2024-03-23T02:00:04;11.57;;;6.32;;
85820;SDS011;76265;50.102;8.854;2024-03-23T02:02:42;15.55;;;6.70;;
85820;SDS011;76265;50.102;8.854;2024-03-23T02:05:08;12.20;;;6.72;;
85820;SDS011;76265;50.102;8.854;2024-03-23T02:07:36;10.88;;;7.15;;
85820;SDS011;76265;50.102;8.854;2024-03-23T02:10:03;11.20;;;6.53;;
85820;SDS011;76265;50.102;8.854;2024-03-23T02:12:31;15.27;;;7.47;;
85820;SDS011;76265;50.102;8.854;2024-03-23T02:14:57;11.25;;;7.18;;
85820;SDS011;76265;50.102;8.854;2024-03-23T02:17:24;25.50;;;8.13;;
85820;SDS011;76265;50.102;8.854;2024-03-23T02:19:51;14.27;;;7.97;;
85820;SDS011;76265;50.102;8.854;2024-03-23T02:22:18;19.67;;;8.13;;
85820;SDS011;76265;50.102;8.854;2024-03-23T02:24:45;12.63;;;7.75;;
85820;SDS011;76265;50.102;8.854;2024-03-23T02:27:12;21.45;;;9.63;;
85820;SDS011;76265;50.102;8.854;2024-03-23T02:29:38;15.95;;;8.75;;
85820;SDS011;76265;50.102;8.854;2024-03-23T02:32:06;21.15;;;9.18;;
85820;SDS011;76265;50.102;8.854;2024-03-23T02:34:32;16.95;;;9.07;;
85820;SDS011;76265;50.102;8.854;2024-03-23T02:36:59;16.15;;;8.80;;
85820;SDS011;76265;50.102;8.854;2024-03-23T02:39:25;14.38;;;7.60;;
85820;SDS011;76265;50.102;8.854;2024-03-23T02:41:53;16.98;;;8.32;;
85820;SDS011;76265;50.102;8.854;2024-03-23T02:44:19;17.58;;;8.85;;
85820;SDS011;76265;50.102;8.854;2024-03-23T02:46:46;19.58;;;8.85;;
85820;SDS011;76265;50.102;8.854;2024-03-23T02:49:14;19.25;;;8.80;;
85820;SDS011;76265;50.102;8.854;2024-03-23T02:51:41;17.15;;;8.35;;
85820;SDS011;76265;50.102;8.854;2024-03-23T02:54:07;15.75;;;8.27;;
85820;SDS011;76265;50.102;8.854;2024-03-23T02:56:34;19.73;;;8.57;;
85820;SDS011;76265;50.102;8.854;2024-03-23T02:59:01;15.35;;;8.18;;
85820;SDS011;76265;50.102;8.854;2024-03-23T03:01:28;14.50;;;8.50;;
85820;SDS011;76265;50.102;8.854;2024-03-23T03:03:54;15.30;;;8.38;;
85820;SDS011;76265;50.102;8.854;2024-03-23T03:06:24;17.63;;;9.13;;
85820;SDS011;76265;50.102;8.854;2024-03-23T03:08:50;16.65;;;8.25;;
85820;SDS011;76265;50.102;8.854;2024-03-23T03:11:17;16.40;;;8.63;;
85820;SDS011;76265;50.102;8.854;2024-03-23T03:13:43;13.45;;;7.28;;
85820;SDS011;76265;50.102;8.854;2024-03-23T03:16:11;19.58;;;8.52;;
85820;SDS011;76265;50.102;8.854;2024-03-23T03:18:38;16.65;;;8.18;;
85820;SDS011;76265;50.102;8.854;2024-03-23T03:21:05;16.95;;;8.35;;
85820;SDS011;76265;50.102;8.854;2024-03-23T03:23:36;15.70;;;8.15;;
85820;SDS011;76265;50.102;8.854;2024-03-23T03:26:03;14.57;;;7.38;;
85820;SDS011;76265;50.102;8.854;2024-03-23T03:28:30;12.93;;;7.72;;
85820;SDS011;76265;50.102;8.854;2024-03-23T03:30:58;17.63;;;8.15;;
85820;SDS011;76265;50.102;8.854;2024-03-23T03:33:26;15.18;;;8.25;;
85820;SDS011;76265;50.102;8.854;2024-03-23T03:35:53;11.93;;;7.68;;
85820;SDS011;76265;50.102;8.854;2024-03-23T03:38:19;16.25;;;7.85;;
85820;SDS011;76265;50.102;8.854;2024-03-23T03:40:46;12.82;;;7.22;;
85820;SDS011;76265;50.102;8.854;2024-03-23T03:43:12;14.18;;;8.35;;
85820;SDS011;76265;50.102;8.854;2024-03-23T03:45:39;18.27;;;8.63;;
85820;SDS011;76265;50.102;8.854;2024-03-23T03:48:06;12.35;;;7.03;;
85820;SDS011;76265;50.102;8.854;2024-03-23T03:50:34;17.25;;;8.38;;
85820;SDS011;76265;50.102;8.854;2024-03-23T03:53:01;13.35;;;7.15;;
85820;SDS011;76265;50.102;8.854;2024-03-23T03:55:28;14.05;;;8.05;;
85820;SDS011;76265;50.102;8.854;2024-03-23T03:57:54;15.68;;;7.85;;
85820;SDS011;76265;50.102;8.854;2024-03-23T04:00:21;13.00;;;7.50;;
85820;SDS011;76265;50.102;8.854;2024-03-23T04:02:47;16.88;;;8.48;;
85820;SDS011;76265;50.102;8.854;2024-03-23T04:05:14;17.48;;;9.05;;
85820;SDS011;76265;50.102;8.854;2024-03-23T04:07:41;14.45;;;7.65;;
85820;SDS011;76265;50.102;8.854;2024-03-23T04:10:09;15.88;;;7.35;;
85820;SDS011;76265;50.102;8.854;2024-03-23T04:12:35;15.18;;;7.65;;
85820;SDS011;76265;50.102;8.854;2024-03-23T04:15:02;17.08;;;7.90;;
85820;SDS011;76265;50.102;8.854;2024-03-23T04:17:30;16.25;;;8.85;;
85820;SDS011;76265;50.102;8.854;2024-03-23T04:19:59;18.27;;;9.02;;
85820;SDS011;76265;50.102;8.854;2024-03-23T04:22:27;19.35;;;9.68;;
85820;SDS011;76265;50.102;8.854;2024-03-23T04:24:55;17.20;;;9.27;;
85820;SDS011;76265;50.102;8.854;2024-03-23T04:27:22;17.98;;;9.20;;
85820;SDS011;76265;50.102;8.854;2024-03-23T04:29:49;19.27;;;10.35;;
85820;SDS011;76265;50.102;8.854;2024-03-23T04:32:16;19.67;;;10.23;;
85820;SDS011;76265;50.102;8.854;2024-03-23T04:34:43;20.60;;;9.75;;
85820;SDS011;76265;50.102;8.854;2024-03-23T04:37:10;22.55;;;11.45;;
85820;SDS011;76265;50.102;8.854;2024-03-23T04:39:37;23.27;;;11.75;;
85820;SDS011;76265;50.102;8.854;2024-03-23T04:42:06;25.60;;;11.50;;
85820;SDS011;76265;50.102;8.854;2024-03-23T04:44:33;22.25;;;11.00;;
85820;SDS011;76265;50.102;8.854;2024-03-23T04:47:00;25.17;;;10.35;;
85820;SDS011;76265;50.102;8.854;2024-03-23T04:49:28;19.77;;;8.80;;
85820;SDS011;76265;50.102;8.854;2024-03-23T04:51:55;20.15;;;8.70;;
85820;SDS011;76265;50.102;8.854;2024-03-23T04:54:23;15.82;;;6.22;;
85820;SDS011;76265;50.102;8.854;2024-03-23T04:56:50;9.77;;;5.03;;
85820;SDS011;76265;50.102;8.854;2024-03-23T04:59:17;13.57;;;5.47;;
85820;SDS011;76265;50.102;8.854;2024-03-23T05:01:44;13.20;;;5.22;;
85820;SDS011;76265;50.102;8.854;2024-03-23T05:04:10;10.55;;;4.95;;
85820;SDS011;76265;50.102;8.854;2024-03-23T05:06:37;8.25;;;4.05;;
85820;SDS011;76265;50.102;8.854;2024-03-23T05:09:03;7.82;;;3.63;;
85820;SDS011;76265;50.102;8.854;2024-03-23T05:11:31;5.00;;;2.70;;
85820;SDS011;76265;50.102;8.854;2024-03-23T05:13:58;7.28;;;2.50;;
85820;SDS011;76265;50.102;8.854;2024-03-23T05:16:26;3.22;;;1.88;;
85820;SDS011;76265;50.102;8.854;2024-03-23T05:18:52;3.10;;;1.52;;
85820;SDS011;76265;50.102;8.854;2024-03-23T05:21:19;2.42;;;1.30;;
85820;SDS011;76265;50.102;8.854;2024-03-23T05:23:46;1.58;;;0.90;;
85820;SDS011;76265;50.102;8.854;2024-03-23T05:26:13;1.20;;;0.80;;
85820;SDS011;76265;50.102;8.854;2024-03-23T05:28:39;1.10;;;0.70;;
85820;SDS011;76265;50.102;8.854;2024-03-23T05:31:06;0.70;;;0.70;;
85820;SDS011;76265;50.102;8.854;2024-03-23T05:33:33;0.93;;;0.50;;
85820;SDS011;76265;50.102;8.854;2024-03-23T05:36:01;0.40;;;0.30;;
85820;SDS011;76265;50.102;8.854;2024-03-23T05:38:27;0.82;;;0.30;;
85820;SDS011;76265;50.102;8.854;2024-03-23T05:40:54;0.68;;;0.40;;
85820;SDS011;76265;50.102;8.854;2024-03-23T05:43:21;1.00;;;0.50;;
85820;SDS011;76265;50.102;8.854;2024-03-23T05:45:52;0.70;;;0.40;;
85820;SDS011;76265;50.102;8.854;2024-03-23T05:48:19;0.65;;;0.50;;
85820;SDS011;76265;50.102;8.854;2024-03-23T05:50:47;0.70;;;0.40;;
85820;SDS011;76265;50.102;8.854;2024-03-23T05:53:14;0.90;;;0.68;;
85820;SDS011;76265;50.102;8.854;2024-03-23T05:55:41;0.90;;;0.50;;
85820;SDS011;76265;50.102;8.854;2024-03-23T05:58:07;1.02;;;0.60;;
85820;SDS011;76265;50.102;8.854;2024-03-23T06:00:34;0.65;;;0.52;;
85820;SDS011;76265;50.102;8.854;2024-03-23T06:03:00;1.00;;;0.52;;
85820;SDS011;76265;50.102;8.854;2024-03-23T06:05:27;0.57;;;0.50;;
85820;SDS011;76265;50.102;8.854;2024-03-23T06:07:55;1.45;;;0.70;;
85820;SDS011;76265;50.102;8.854;2024-03-23T06:10:22;0.85;;;0.47;;
85820;SDS011;76265;50.102;8.854;2024-03-23T06:12:51;1.02;;;0.65;;
85820;SDS011;76265;50.102;8.854;2024-03-23T06:15:18;0.60;;;0.60;;
85820;SDS011;76265;50.102;8.854;2024-03-23T06:17:44;0.60;;;0.30;;
85820;SDS011;76265;50.102;8.854;2024-03-23T06:20:12;1.10;;;0.68;;
85820;SDS011;76265;50.102;8.854;2024-03-23T06:22:38;0.65;;;0.55;;
85820;SDS011;76265;50.102;8.854;2024-03-23T06:25:07;1.05;;;0.60;;
85820;SDS011;76265;50.102;8.854;2024-03-23T06:27:34;1.25;;;0.43;;
85820;SDS011;76265;50.102;8.854;2024-03-23T06:30:01;0.30;;;0.28;;
85820;SDS011;76265;50.102;8.854;2024-03-23T06:32:27;0.90;;;0.45;;
85820;SDS011;76265;50.102;8.854;2024-03-23T06:34:55;0.55;;;0.22;;
85820;SDS011;76265;50.102;8.854;2024-03-23T06:37:21;0.47;;;0.20;;
85820;SDS011;76265;50.102;8.854;2024-03-23T06:39:48;1.42;;;0.90;;
85820;SDS011;76265;50.102;8.854;2024-03-23T06:42:15;0.70;;;0.25;;
85820;SDS011;76265;50.102;8.854;2024-03-23T06:44:43;0.52;;;0.32;;
85820;SDS011;76265;50.102;8.854;2024-03-23T06:47:09;0.50;;;0.30;;
85820;SDS011;76265;50.102;8.854;2024-03-23T06:49:36;0.65;;;0.30;;
85820;SDS011;76265;50.102;8.854;2024-03-23T06:52:02;0.93;;;0.50;;
85820;SDS011;76265;50.102;8.854;2024-03-23T06:54:29;0.85;;;0.30;;
85820;SDS011;76265;50.102;8.854;2024-03-23T06:56:55;0.70;;;0.40;;
85820;SDS011;76265;50.102;8.854;2024-03-23T06:59:24;0.38;;;0.17;;
85820;SDS011;76265;50.102;8.854;2024-03-23T07:01:50;0.57;;;0.43;;
85820;SDS011;76265;50.102;8.854;2024-03-23T07:04:17;0.95;;;0.20;;
85820;SDS011;76265;50.102;8.854;2024-03-23T07:06:44;0.52;;;0.20;;
85820;SDS011;76265;50.102;8.854;2024-03-23T07:09:11;1.42;;;0.45;;
85820;SDS011;76265;50.102;8.854;2024-03-23T07:11:37;0.30;;;0.10;;
85820;SDS011;76265;50.102;8.854;2024-03-23T07:14:04;1.50;;;0.17;;
85820;SDS011;76265;50.102;8.854;2024-03-23T07:16:32;0.30;;;0.20;;
85820;SDS011;76265;50.102;8.854;2024-03-23T07:18:59;0.82;;;0.10;;
85820;SDS011;76265;50.102;8.854;2024-03-23T07:21:25;0.40;;;0.10;;
85820;SDS011;76265;50.102;8.854;2024-03-23T07:23:52;0.30;;;0.15;;
85820;SDS011;76265;50.102;8.854;2024-03-23T07:26:18;0.50;;;0.20;;
85820;SDS011;76265;50.102;8.854;2024-03-23T07:28:45;1.02;;;0.40;;
85820;SDS011;76265;50.102;8.854;2024-03-23T07:31:12;1.17;;;0.20;;
85820;SDS011;76265;50.102;8.854;2024-03-23T07:33:45;0.73;;;0.17;;
85820;SDS011;76265;50.102;8.854;2024-03-23T07:36:12;1.60;;;0.25;;
85820;SDS011;76265;50.102;8.854;2024-03-23T07:38:40;0.98;;;0.20;;
85820;SDS011;76265;50.102;8.854;2024-03-23T07:41:07;1.42;;;0.35;;
85820;SDS011;76265;50.102;8.854;2024-03-23T07:43:35;1.95;;;0.60;;
85820;SDS011;76265;50.102;8.854;2024-03-23T07:46:01;1.35;;;0.45;;
85820;SDS011;76265;50.102;8.854;2024-03-23T07:48:29;0.98;;;0.47;;
85820;SDS011;76265;50.102;8.854;2024-03-23T07:50:58;2.42;;;0.70;;
85820;SDS011;76265;50.102;8.854;2024-03-23T07:53:26;1.48;;;0.40;;
85820;SDS011;76265;50.102;8.854;2024-03-23T07:55:56;0.68;;;0.40;;
85820;SDS011;76265;50.102;8.854;2024-03-23T07:58:24;3.83;;;0.70;;
85820;SDS011;76265;50.102;8.854;2024-03-23T08:00:50;2.60;;;0.47;;
85820;SDS011;76265;50.102;8.854;2024-03-23T08:03:17;4.97;;;0.93;;
85820;SDS011;76265;50.102;8.854;2024-03-23T08:05:43;1.17;;;0.85;;
85820;SDS011;76265;50.102;8.854;2024-03-23T08:08:11;0.77;;;0.50;;
85820;SDS011;76265;50.102;8.854;2024-03-23T08:10:38;2.22;;;0.95;;
85820;SDS011;76265;50.102;8.854;2024-03-23T08:13:13;1.60;;;0.85;;
85820;SDS011;76265;50.102;8.854;2024-03-23T08:15:39;2.65;;;0.70;;
85820;SDS011;76265;50.102;8.854;2024-03-23T08:18:06;2.72;;;0.77;;
85820;SDS011;76265;50.102;8.854;2024-03-23T08:20:33;2.25;;;0.70;;
85820;SDS011;76265;50.102;8.854;2024-03-23T08:23:00;2.78;;;1.15;;
85820;SDS011;76265;50.102;8.854;2024-03-23T08:25:27;1.92;;;0.77;;
85820;SDS011;76265;50.102;8.854;2024-03-23T08:27:57;3.80;;;1.40;;
85820;SDS011;76265;50.102;8.854;2024-03-23T08:30:23;4.90;;;1.20;;
85820;SDS011;76265;50.102;8.854;2024-03-23T08:32:50;2.40;;;1.23;;
85820;SDS011;76265;50.102;8.854;2024-03-23T08:35:16;3.30;;;1.38;;
85820;SDS011;76265;50.102;8.854;2024-03-23T08:37:43;2.25;;;1.00;;
85820;SDS011;76265;50.102;8.854;2024-03-23T08:40:09;3.30;;;1.13;;
85820;SDS011;76265;50.102;8.854;2024-03-23T08:42:38;2.83;;;1.10;;
85820;SDS011;76265;50.102;8.854;2024-03-23T08:45:05;3.28;;;1.30;;
85820;SDS011;76265;50.102;8.854;2024-03-23T08:47:34;6.03;;;1.50;;
85820;SDS011;76265;50.102;8.854;2024-03-23T08:50:01;2.30;;;1.27;;
85820;SDS011;76265;50.102;8.854;2024-03-23T08:52:29;5.07;;;1.42;;
85820;SDS011;76265;50.102;8.854;2024-03-23T08:54:55;2.58;;;1.52;;
85820;SDS011;76265;50.102;8.854;2024-03-23T08:57:22;3.33;;;1.83;;
85820;SDS011;76265;50.102;8.854;2024-03-23T08:59:50;3.72;;;1.63;;
85820;SDS011;76265;50.102;8.854;2024-03-23T09:02:17;3.10;;;1.60;;
85820;SDS011;76265;50.102;8.854;2024-03-23T09:04:43;5.93;;;1.58;;
85820;SDS011;76265;50.102;8.854;2024-03-23T09:07:11;4.05;;;1.40;;
85820;SDS011;76265;50.102;8.854;2024-03-23T09:09:37;4.32;;;1.38;;
85820;SDS011;76265;50.102;8.854;2024-03-23T09:12:05;4.45;;;1.58;;
85820;SDS011;76265;50.102;8.854;2024-03-23T09:14:31;6.28;;;1.73;;
85820;SDS011;76265;50.102;8.854;2024-03-23T09:17:00;6.38;;;1.63;;
85820;SDS011;76265;50.102;8.854;2024-03-23T09:19:27;3.30;;;1.70;;
85820;SDS011;76265;50.102;8.854;2024-03-23T09:21:54;3.65;;;1.77;;
85820;SDS011;76265;50.102;8.854;2024-03-23T09:24:20;2.75;;;1.50;;
85820;SDS011;76265;50.102;8.854;2024-03-23T09:26:47;3.72;;;1.80;;
85820;SDS011;76265;50.102;8.854;2024-03-23T09:29:13;5.57;;;2.85;;
85820;SDS011;76265;50.102;8.854;2024-03-23T09:31:40;7.45;;;1.65;;
85820;SDS011;76265;50.102;8.854;2024-03-23T09:34:08;4.93;;;1.60;;
85820;SDS011;76265;50.102;8.854;2024-03-23T09:36:35;3.15;;;1.50;;
85820;SDS011;76265;50.102;8.854;2024-03-23T09:39:01;6.60;;;1.50;;
85820;SDS011;76265;50.102;8.854;2024-03-23T09:41:29;8.02;;;1.75;;
85820;SDS011;76265;50.102;8.854;2024-03-23T09:43:55;1.88;;;0.82;;
85820;SDS011;76265;50.102;8.854;2024-03-23T09:46:22;3.10;;;1.17;;
85820;SDS011;76265;50.102;8.854;2024-03-23T09:48:48;3.60;;;2.22;;
85820;SDS011;76265;50.102;8.854;2024-03-23T09:51:17;5.28;;;1.98;;
85820;SDS011;76265;50.102;8.854;2024-03-23T09:53:43;5.32;;;1.40;;
85820;SDS011;76265;50.102;8.854;2024-03-23T09:56:10;3.63;;;1.42;;
85820;SDS011;76265;50.102;8.854;2024-03-23T09:58:36;6.00;;;1.60;;
85820;SDS011;76265;50.102;8.854;2024-03-23T10:01:03;4.05;;;1.10;;
85820;SDS011;76265;50.102;8.854;2024-03-23T10:03:30;6.75;;;1.50;;
85820;SDS011;76265;50.102;8.854;2024-03-23T10:06:00;5.05;;;1.20;;
85820;SDS011;76265;50.102;8.854;2024-03-23T10:08:28;5.95;;;1.50;;
85820;SDS011;76265;50.102;8.854;2024-03-23T10:10:56;4.05;;;1.42;;
85820;SDS011;76265;50.102;8.854;2024-03-23T10:13:25;3.85;;;1.42;;
85820;SDS011;76265;50.102;8.854;2024-03-23T10:15:56;3.25;;;1.20;;
85820;SDS011;76265;50.102;8.854;2024-03-23T10:18:23;5.53;;;1.77;;
85820;SDS011;76265;50.102;8.854;2024-03-23T10:20:51;10.25;;;1.60;;
85820;SDS011;76265;50.102;8.854;2024-03-23T10:23:33;5.10;;;1.17;;
85820;SDS011;76265;50.102;8.854;2024-03-23T10:26:11;4.68;;;1.00;;
85820;SDS011;76265;50.102;8.854;2024-03-23T10:28:43;5.93;;;1.50;;
85820;SDS011;76265;50.102;8.854;2024-03-23T10:31:18;2.38;;;1.10;;
85820;SDS011;76265;50.102;8.854;2024-03-23T10:33:45;4.97;;;1.70;;
85820;SDS011;76265;50.102;8.854;2024-03-23T10:36:12;4.50;;;1.30;;
85820;SDS011;76265;50.102;8.854;2024-03-23T10:38:41;2.95;;;1.27;;
85820;SDS011;76265;50.102;8.854;2024-03-23T10:41:09;3.05;;;1.27;;
85820;SDS011;76265;50.102;8.854;2024-03-23T10:43:36;6.10;;;1.15;;
85820;SDS011;76265;50.102;8.854;2024-03-23T10:46:03;4.53;;;1.40;;
85820;SDS011;76265;50.102;8.854;2024-03-23T10:48:30;5.95;;;0.90;;
85820;SDS011;76265;50.102;8.854;2024-03-23T10:50:58;4.32;;;1.10;;
85820;SDS011;76265;50.102;8.854;2024-03-23T10:53:25;4.43;;;1.17;;
85820;SDS011;76265;50.102;8.854;2024-03-23T10:55:56;3.58;;;1.10;;
85820;SDS011;76265;50.102;8.854;2024-03-23T10:58:23;2.58;;;0.93;;
85820;SDS011;76265;50.102;8.854;2024-03-23T11:00:53;3.63;;;1.40;;
85820;SDS011;76265;50.102;8.854;2024-03-23T11:03:32;6.25;;;1.30;;
85820;SDS011;76265;50.102;8.854;2024-03-23T11:06:00;4.50;;;0.80;;
85820;SDS011;76265;50.102;8.854;2024-03-23T11:08:30;3.65;;;1.00;;
85820;SDS011;76265;50.102;8.854;2024-03-23T11:11:15;4.93;;;0.98;;
85820;SDS011;76265;50.102;8.854;2024-03-23T11:13:43;5.95;;;1.33;;
85820;SDS011;76265;50.102;8.854;2024-03-23T11:16:14;2.90;;;0.90;;
85820;SDS011;76265;50.102;8.854;2024-03-23T11:18:41;4.63;;;0.98;;
85820;SDS011;76265;50.102;8.854;2024-03-23T11:21:09;2.38;;;0.90;;
85820;SDS011;76265;50.102;8.854;2024-03-23T11:23:35;5.15;;;0.98;;
85820;SDS011;76265;50.102;8.854;2024-03-23T11:26:06;6.82;;;1.20;;
85820;SDS011;76265;50.102;8.854;2024-03-23T11:28:34;2.58;;;0.50;;
85820;SDS011;76265;50.102;8.854;2024-03-23T11:31:01;3.28;;;0.52;;
85820;SDS011;76265;50.102;8.854;2024-03-23T11:33:34;3.58;;;0.73;;
85820;SDS011;76265;50.102;8.854;2024-03-23T11:36:01;2.08;;;0.98;;
85820;SDS011;76265;50.102;8.854;2024-03-23T11:38:28;3.05;;;1.05;;
85820;SDS011;76265;50.102;8.854;2024-03-23T11:40:55;1.92;;;0.63;;
85820;SDS011;76265;50.102;8.854;2024-03-23T11:43:21;3.72;;;0.68;;
85820;SDS011;76265;50.102;8.854;2024-03-23T11:45:51;3.15;;;0.70;;
85820;SDS011;76265;50.102;8.854;2024-03-23T11:48:18;3.83;;;0.80;;
85820;SDS011;76265;50.102;8.854;2024-03-23T11:50:47;2.88;;;1.30;;
85820;SDS011;76265;50.102;8.854;2024-03-23T11:53:14;5.53;;;1.10;;
85820;SDS011;76265;50.102;8.854;2024-03-23T11:55:46;5.35;;;1.25;;
85820;SDS011;76265;50.102;8.854;2024-03-23T11:58:13;0.93;;;0.70;;
85820;SDS011;76265;50.102;8.854;2024-03-23T12:00:41;4.65;;;1.25;;
85820;SDS011;76265;50.102;8.854;2024-03-23T12:03:09;2.25;;;1.10;;
85820;SDS011;76265;50.102;8.854;2024-03-23T12:05:36;7.28;;;0.93;;
85820;SDS011;76265;50.102;8.854;2024-03-23T12:08:17;2.00;;;0.70;;
85820;SDS011;76265;50.102;8.854;2024-03-23T12:10:46;2.10;;;0.68;;
85820;SDS011;76265;50.102;8.854;2024-03-23T12:15:44;3.60;;;1.17;;
85820;SDS011;76265;50.102;8.854;2024-03-23T12:18:13;1.42;;;0.50;;
85820;SDS011;76265;50.102;8.854;2024-03-23T12:20:39;5.95;;;1.00;;
85820;SDS011;76265;50.102;8.854;2024-03-23T12:23:07;2.20;;;1.33;;
85820;SDS011;76265;50.102;8.854;2024-03-23T12:25:35;3.97;;;0.93;;
85820;SDS011;76265;50.102;8.854;2024-03-23T12:28:02;2.72;;;1.60;;
85820;SDS011;76265;50.102;8.854;2024-03-23T12:30:32;3.28;;;1.02;;
85820;SDS011;76265;50.102;8.854;2024-03-23T12:33:00;3.08;;;0.90;;
85820;SDS011;76265;50.102;8.854;2024-03-23T12:35:30;3.03;;;0.95;;
85820;SDS011;76265;50.102;8.854;2024-03-23T12:37:57;3.38;;;0.75;;
85820;SDS011;76265;50.102;8.854;2024-03-23T12:40:23;3.40;;;1.00;;
85820;SDS011;76265;50.102;8.854;2024-03-23T12:42:50;4.13;;;1.20;;
85820;SDS011;76265;50.102;8.854;2024-03-23T12:45:16;4.55;;;1.20;;
85820;SDS011;76265;50.102;8.854;2024-03-23T12:47:43;2.45;;;1.17;;
85820;SDS011;76265;50.102;8.854;2024-03-23T12:50:09;3.30;;;0.95;;
85820;SDS011;76265;50.102;8.854;2024-03-23T12:52:38;4.57;;;1.05;;
85820;SDS011;76265;50.102;8.854;2024-03-23T12:55:04;1.92;;;0.90;;
85820;SDS011;76265;50.102;8.854;2024-03-23T12:57:31;2.13;;;1.02;;
85820;SDS011;76265;50.102;8.854;2024-03-23T12:59:58;1.98;;;1.00;;
85820;SDS011;76265;50.102;8.854;2024-03-23T13:02:26;4.53;;;1.20;;
85820;SDS011;76265;50.102;8.854;2024-03-23T13:04:52;3.53;;;1.00;;
85820;SDS011;76265;50.102;8.854;2024-03-23T13:07:20;2.53;;;1.35;;
85820;SDS011;76265;50.102;8.854;2024-03-23T13:09:49;3.97;;;1.42;;
85820;SDS011;76265;50.102;8.854;2024-03-23T13:12:17;6.20;;;1.27;;
85820;SDS011;76265;50.102;8.854;2024-03-23T13:14:44;4.43;;;1.20;;
85820;SDS011;76265;50.102;8.854;2024-03-23T13:17:11;4.35;;;1.38;;
85820;SDS011;76265;50.102;8.854;2024-03-23T13:19:38;2.67;;;1.50;;
85820;SDS011;76265;50.102;8.854;2024-03-23T13:22:05;4.13;;;1.00;;
85820;SDS011;76265;50.102;8.854;2024-03-23T13:24:32;4.30;;;1.10;;
85820;SDS011;76265;50.102;8.854;2024-03-23T13:26:59;2.10;;;1.08;;
85820;SDS011;76265;50.102;8.854;2024-03-23T13:29:26;3.70;;;0.90;;
85820;SDS011;76265;50.102;8.854;2024-03-23T13:31:52;4.38;;;1.02;;
85820;SDS011;76265;50.102;8.854;2024-03-23T13:34:19;3.08;;;0.80;;
85820;SDS011;76265;50.102;8.854;2024-03-23T13:36:46;1.10;;;0.68;;
85820;SDS011;76265;50.102;8.854;2024-03-23T13:39:15;2.15;;;0.63;;
85820;SDS011;76265;50.102;8.854;2024-03-23T13:41:41;1.70;;;0.22;;
85820;SDS011;76265;50.102;8.854;2024-03-23T13:44:11;0.70;;;0.40;;
85820;SDS011;76265;50.102;8.854;2024-03-23T13:46:38;3.25;;;0.47;;
85820;SDS011;76265;50.102;8.854;2024-03-23T13:49:06;2.53;;;0.55;;
85820;SDS011;76265;50.102;8.854;2024-03-23T13:51:32;3.65;;;0.73;;
85820;SDS011;76265;50.102;8.854;2024-03-23T13:53:59;1.20;;;0.70;;
85820;SDS011;76265;50.102;8.854;2024-03-23T13:56:26;1.23;;;0.50;;
85820;SDS011;76265;50.102;8.854;2024-03-23T13:58:55;1.95;;;0.70;;
85820;SDS011;76265;50.102;8.854;2024-03-23T14:01:22;1.25;;;0.73;;
85820;SDS011;76265;50.102;8.854;2024-03-23T14:03:49;0.50;;;0.20;;
85820;SDS011;76265;50.102;8.854;2024-03-23T14:06:16;0.90;;;0.47;;
85820;SDS011;76265;50.102;8.854;2024-03-23T14:08:43;0.90;;;0.40;;
85820;SDS011;76265;50.102;8.854;2024-03-23T14:11:09;1.67;;;0.40;;
85820;SDS011;76265;50.102;8.854;2024-03-23T14:13:37;0.73;;;0.60;;
85820;SDS011;76265;50.102;8.854;2024-03-23T14:16:03;1.40;;;0.75;;
85820;SDS011;76265;50.102;8.854;2024-03-23T14:18:32;1.58;;;0.45;;
85820;SDS011;76265;50.102;8.854;2024-03-23T14:20:59;2.20;;;0.52;;
85820;SDS011;76265;50.102;8.854;2024-03-23T14:23:27;2.75;;;0.73;;
85820;SDS011;76265;50.102;8.854;2024-03-23T14:25:54;1.30;;;0.70;;
85820;SDS011;76265;50.102;8.854;2024-03-23T14:28:22;0.65;;;0.40;;
85820;SDS011;76265;50.102;8.854;2024-03-23T14:30:48;1.05;;;0.40;;
85820;SDS011;76265;50.102;8.854;2024-03-23T14:33:16;1.05;;;0.50;;
85820;SDS011;76265;50.102;8.854;2024-03-23T14:35:43;1.55;;;0.68;;
85820;SDS011;76265;50.102;8.854;2024-03-23T14:38:18;2.25;;;0.57;;
85820;SDS011;76265;50.102;8.854;2024-03-23T14:40:44;0.40;;;0.38;;
85820;SDS011;76265;50.102;8.854;2024-03-23T14:43:11;0.63;;;0.40;;
85820;SDS011;76265;50.102;8.854;2024-03-23T14:45:37;0.52;;;0.22;;
85820;SDS011;76265;50.102;8.854;2024-03-23T14:48:30;1.58;;;0.60;;
85820;SDS011;76265;50.102;8.854;2024-03-23T14:50:57;1.35;;;0.65;;
85820;SDS011;76265;50.102;8.854;2024-03-23T14:53:25;1.50;;;0.52;;
85820;SDS011;76265;50.102;8.854;2024-03-23T14:55:52;2.78;;;0.82;;
85820;SDS011;76265;50.102;8.854;2024-03-23T14:58:20;1.15;;;0.68;;
85820;SDS011;76265;50.102;8.854;2024-03-23T15:00:48;1.45;;;0.80;;
85820;SDS011;76265;50.102;8.854;2024-03-23T15:03:15;5.57;;;2.67;;
85820;SDS011;76265;50.102;8.854;2024-03-23T15:05:41;0.90;;;0.70;;
85820;SDS011;76265;50.102;8.854;2024-03-23T15:08:10;5.15;;;1.60;;
85820;SDS011;76265;50.102;8.854;2024-03-23T15:10:37;7.40;;;2.45;;
85820;SDS011;76265;50.102;8.854;2024-03-23T15:13:05;0.77;;;0.50;;
85820;SDS011;76265;50.102;8.854;2024-03-23T15:15:31;5.93;;;2.00;;
85820;SDS011;76265;50.102;8.854;2024-03-23T15:18:04;11.15;;;2.17;;
85820;SDS011;76265;50.102;8.854;2024-03-23T15:20:31;4.38;;;2.00;;
85820;SDS011;76265;50.102;8.854;2024-03-23T15:25:29;1.17;;;0.73;;
85820;SDS011;76265;50.102;8.854;2024-03-23T15:27:56;1.10;;;0.60;;
85820;SDS011;76265;50.102;8.854;2024-03-23T15:30:23;1.05;;;0.40;;
85820;SDS011;76265;50.102;8.854;2024-03-23T15:32:50;2.50;;;0.60;;
85820;SDS011;76265;50.102;8.854;2024-03-23T15:35:16;0.65;;;0.43;;
85820;SDS011;76265;50.102;8.854;2024-03-23T15:37:43;0.60;;;0.40;;
85820;SDS011;76265;50.102;8.854;2024-03-23T15:40:09;1.67;;;0.60;;
85820;SDS011;76265;50.102;8.854;2024-03-23T15:42:40;1.58;;;0.60;;